CG Hawser — NAYC — position and weather

sailwx.info

Track history (hours):
 
Tides and Currents Weather Stations Pressure Air Temp Water Temp Dewpoint Dewpoint Depression Visibility Wind Speed Wind Dir Waves Ship Positions

CG Hawser

Last reported at 2017-Dec-12 15:43 UTC. Time now 2017-Dec-15 15:38 UTC.
Position N 40°40' W 074°05'.

Length 19 m; draft 2 m.

Type: Law enforcement. MMSI: 366999973.

Date/timePositionNaut miles runAvg speedWind from/ knotsBaromVisibWave heightAir tempDewpointWater temp
2017-Dec-12 15:43N 40°40' W 074°05'1 3.4
2017-Dec-12 15:30N 40°40' W 074°05'2 3.5
2017-Dec-12 15:00N 40°39' W 074°03'0 0.3
2017-Dec-12 14:30N 40°39' W 074°03'1 1.2
2017-Dec-12 14:00N 40°39' W 074°03'  
2017-Dec-07 16:58N 40°40' W 074°05'2 3.7
2017-Dec-07 16:30N 40°40' W 074°03'4 8.5
2017-Dec-07 16:00N 40°44' W 074°01'4 7.7
2017-Dec-07 15:30N 40°47' W 073°59'4 7.8
2017-Dec-07 15:00N 40°51' W 073°57'  
2017-Dec-04 10:30N 40°40' W 074°05'0 0.0
2017-Dec-04 10:00N 40°40' W 074°05'0 0.0
2017-Dec-04 09:30N 40°40' W 074°05'0 0.0
2017-Dec-04 08:58N 40°40' W 074°05'0 0.0
2017-Dec-04 08:27N 40°40' W 074°05'0 0.0
2017-Dec-04 07:57N 40°40' W 074°05'0 0.0
2017-Dec-04 07:27N 40°40' W 074°05'0 0.0
2017-Dec-04 06:55N 40°40' W 074°05'0 0.0
2017-Dec-04 06:30N 40°40' W 074°05'0 0.0
2017-Dec-04 05:57N 40°40' W 074°05'0 0.0
2017-Dec-04 05:30N 40°40' W 074°05'0 0.0
2017-Dec-04 05:00N 40°40' W 074°05'0 0.0
2017-Dec-04 04:27N 40°40' W 074°05'0 0.0
2017-Dec-04 03:57N 40°40' W 074°05'0 0.0
2017-Dec-04 03:30N 40°40' W 074°05'0 0.0
2017-Dec-04 02:54N 40°40' W 074°05'0 0.0
2017-Dec-04 02:28N 40°40' W 074°05'0 0.0
2017-Dec-04 02:00N 40°40' W 074°05'0 0.0
2017-Dec-04 01:30N 40°40' W 074°05'0 0.0
2017-Dec-04 01:00N 40°40' W 074°05'0 0.0
2017-Dec-04 00:30N 40°40' W 074°05'0 0.0
2017-Dec-03 23:55N 40°40' W 074°05'0 0.0
2017-Dec-03 23:25N 40°40' W 074°05'0 0.0
2017-Dec-03 22:57N 40°40' W 074°05'0 0.0
2017-Dec-03 22:25N 40°40' W 074°05'0 0.0
2017-Dec-03 22:00N 40°40' W 074°05'0 0.0
2017-Dec-03 21:30N 40°40' W 074°05'0 0.0
2017-Dec-03 20:57N 40°40' W 074°05'0 0.0
2017-Dec-03 20:30N 40°40' W 074°05'0 0.0
2017-Dec-03 20:00N 40°40' W 074°05'0 0.0
2017-Dec-03 19:27N 40°40' W 074°05'0 0.0
2017-Dec-03 18:57N 40°40' W 074°05'0 0.0
2017-Dec-03 18:30N 40°40' W 074°05'0 0.0
2017-Dec-03 18:00N 40°40' W 074°05'0 0.0
2017-Dec-03 17:30N 40°40' W 074°05'0 0.0
2017-Dec-03 16:58N 40°40' W 074°05'0 0.0
2017-Dec-03 16:25N 40°40' W 074°05'0 0.0
2017-Dec-03 15:58N 40°40' W 074°05'0 0.0
2017-Dec-03 15:27N 40°40' W 074°05'0 0.0
2017-Dec-03 15:00N 40°40' W 074°05'0 0.0
2017-Dec-03 14:30N 40°40' W 074°05'0 0.0
2017-Dec-03 13:54N 40°40' W 074°05'0 0.0
2017-Dec-03 13:30N 40°40' W 074°05'0 0.0
2017-Dec-03 13:00N 40°40' W 074°05'0 0.0
2017-Dec-03 12:30N 40°40' W 074°05'0 0.0
2017-Dec-03 11:57N 40°40' W 074°05'0 0.0
2017-Dec-03 11:30N 40°40' W 074°05'0 0.0
2017-Dec-03 11:00N 40°40' W 074°05'0 0.0
2017-Dec-03 10:30N 40°40' W 074°05'0 0.0
2017-Dec-03 09:58N 40°40' W 074°05'0 0.0
2017-Dec-03 09:28N 40°40' W 074°05'0 0.0
2017-Dec-03 08:58N 40°40' W 074°05'0 0.0
2017-Dec-03 08:19N 40°40' W 074°05'0 0.0
2017-Dec-03 07:58N 40°40' W 074°05'0 0.0
2017-Dec-03 07:30N 40°40' W 074°05'0 0.0
2017-Dec-03 07:00N 40°40' W 074°05'0 0.0
2017-Dec-03 06:30N 40°40' W 074°05'0 0.0
2017-Dec-03 06:00N 40°40' W 074°05'0 0.0
2017-Dec-03 05:30N 40°40' W 074°05'0 0.0
2017-Dec-03 05:00N 40°40' W 074°05'0 0.0
2017-Dec-03 04:30N 40°40' W 074°05'0 0.0
2017-Dec-03 04:00N 40°40' W 074°05'0 0.0
2017-Dec-03 03:27N 40°40' W 074°05'0 0.0
2017-Dec-03 02:49N 40°40' W 074°05'0 0.0
2017-Dec-03 02:28N 40°40' W 074°05'0 0.0
2017-Dec-03 01:58N 40°40' W 074°05'0 0.0
2017-Dec-03 01:31N 40°40' W 074°05'0 0.0
2017-Dec-03 01:00N 40°40' W 074°05'0 0.0
2017-Dec-03 00:30N 40°40' W 074°05'0 0.0
2017-Dec-02 23:57N 40°40' W 074°05'0 0.0
2017-Dec-02 23:30N 40°40' W 074°05'0 0.0
2017-Dec-02 23:00N 40°40' W 074°05'0 0.0
2017-Dec-02 22:30N 40°40' W 074°05'0 0.0
2017-Dec-02 22:00N 40°40' W 074°05'0 0.0
2017-Dec-02 21:30N 40°40' W 074°05'0 0.0
2017-Dec-02 21:00N 40°40' W 074°05'0 0.0
2017-Dec-02 20:30N 40°40' W 074°05'0 0.0
2017-Dec-02 20:00N 40°40' W 074°05'0 0.0
2017-Dec-02 19:30N 40°40' W 074°05'0 0.0
2017-Dec-02 19:00N 40°40' W 074°05'0 0.0
2017-Dec-02 18:27N 40°40' W 074°05'0 0.0
2017-Dec-02 17:57N 40°40' W 074°05'0 0.0
2017-Dec-02 17:27N 40°40' W 074°05'0 0.0
2017-Dec-02 16:57N 40°40' W 074°05'0 0.0
2017-Dec-02 16:31N 40°40' W 074°05'0 0.0
2017-Dec-02 16:00N 40°40' W 074°05'  
Track history (hours):
 
Tides and Currents Weather Stations Pressure Air Temp Water Temp Dewpoint Dewpoint Depression Visibility Wind Speed Wind Dir Waves Ship Positions

CG Hawser

Last reported at 2017-Dec-12 15:43 UTC. Time now 2017-Dec-15 15:38 UTC.
Position N 40°40' W 074°05'.

Length 19 m; draft 2 m.

Type: Law enforcement. MMSI: 366999973.

Date/timePositionNaut miles runAvg speedWind from/ knotsBaromVisibWave heightAir tempDewpointWater temp
2017-Dec-12 15:43N 40°40' W 074°05'1 3.4
2017-Dec-12 15:30N 40°40' W 074°05'2 3.5
2017-Dec-12 15:00N 40°39' W 074°03'0 0.3
2017-Dec-12 14:30N 40°39' W 074°03'1 1.2
2017-Dec-12 14:00N 40°39' W 074°03'  
2017-Dec-07 16:58N 40°40' W 074°05'2 3.7
2017-Dec-07 16:30N 40°40' W 074°03'4 8.5
2017-Dec-07 16:00N 40°44' W 074°01'4 7.7
2017-Dec-07 15:30N 40°47' W 073°59'4 7.8
2017-Dec-07 15:00N 40°51' W 073°57'  
2017-Dec-04 10:30N 40°40' W 074°05'0 0.0
2017-Dec-04 10:00N 40°40' W 074°05'0 0.0
2017-Dec-04 09:30N 40°40' W 074°05'0 0.0
2017-Dec-04 08:58N 40°40' W 074°05'0 0.0
2017-Dec-04 08:27N 40°40' W 074°05'0 0.0
2017-Dec-04 07:57N 40°40' W 074°05'0 0.0
2017-Dec-04 07:27N 40°40' W 074°05'0 0.0
2017-Dec-04 06:55N 40°40' W 074°05'0 0.0
2017-Dec-04 06:30N 40°40' W 074°05'0 0.0
2017-Dec-04 05:57N 40°40' W 074°05'0 0.0
2017-Dec-04 05:30N 40°40' W 074°05'0 0.0
2017-Dec-04 05:00N 40°40' W 074°05'0 0.0
2017-Dec-04 04:27N 40°40' W 074°05'0 0.0
2017-Dec-04 03:57N 40°40' W 074°05'0 0.0
2017-Dec-04 03:30N 40°40' W 074°05'0 0.0
2017-Dec-04 02:54N 40°40' W 074°05'0 0.0
2017-Dec-04 02:28N 40°40' W 074°05'0 0.0
2017-Dec-04 02:00N 40°40' W 074°05'0 0.0
2017-Dec-04 01:30N 40°40' W 074°05'0 0.0
2017-Dec-04 01:00N 40°40' W 074°05'0 0.0
2017-Dec-04 00:30N 40°40' W 074°05'0 0.0
2017-Dec-03 23:55N 40°40' W 074°05'0 0.0
2017-Dec-03 23:25N 40°40' W 074°05'0 0.0
2017-Dec-03 22:57N 40°40' W 074°05'0 0.0
2017-Dec-03 22:25N 40°40' W 074°05'0 0.0
2017-Dec-03 22:00N 40°40' W 074°05'0 0.0
2017-Dec-03 21:30N 40°40' W 074°05'0 0.0
2017-Dec-03 20:57N 40°40' W 074°05'0 0.0
2017-Dec-03 20:30N 40°40' W 074°05'0 0.0
2017-Dec-03 20:00N 40°40' W 074°05'0 0.0
2017-Dec-03 19:27N 40°40' W 074°05'0 0.0
2017-Dec-03 18:57N 40°40' W 074°05'0 0.0
2017-Dec-03 18:30N 40°40' W 074°05'0 0.0
2017-Dec-03 18:00N 40°40' W 074°05'0 0.0
2017-Dec-03 17:30N 40°40' W 074°05'0 0.0
2017-Dec-03 16:58N 40°40' W 074°05'0 0.0
2017-Dec-03 16:25N 40°40' W 074°05'0 0.0
2017-Dec-03 15:58N 40°40' W 074°05'0 0.0
2017-Dec-03 15:27N 40°40' W 074°05'0 0.0
2017-Dec-03 15:00N 40°40' W 074°05'0 0.0
2017-Dec-03 14:30N 40°40' W 074°05'0 0.0
2017-Dec-03 13:54N 40°40' W 074°05'0 0.0
2017-Dec-03 13:30N 40°40' W 074°05'0 0.0
2017-Dec-03 13:00N 40°40' W 074°05'0 0.0
2017-Dec-03 12:30N 40°40' W 074°05'0 0.0
2017-Dec-03 11:57N 40°40' W 074°05'0 0.0
2017-Dec-03 11:30N 40°40' W 074°05'0 0.0
2017-Dec-03 11:00N 40°40' W 074°05'0 0.0
2017-Dec-03 10:30N 40°40' W 074°05'0 0.0
2017-Dec-03 09:58N 40°40' W 074°05'0 0.0
2017-Dec-03 09:28N 40°40' W 074°05'0 0.0
2017-Dec-03 08:58N 40°40' W 074°05'0 0.0
2017-Dec-03 08:19N 40°40' W 074°05'0 0.0
2017-Dec-03 07:58N 40°40' W 074°05'0 0.0
2017-Dec-03 07:30N 40°40' W 074°05'0 0.0
2017-Dec-03 07:00N 40°40' W 074°05'0 0.0
2017-Dec-03 06:30N 40°40' W 074°05'0 0.0
2017-Dec-03 06:00N 40°40' W 074°05'0 0.0
2017-Dec-03 05:30N 40°40' W 074°05'0 0.0
2017-Dec-03 05:00N 40°40' W 074°05'0 0.0
2017-Dec-03 04:30N 40°40' W 074°05'0 0.0
2017-Dec-03 04:00N 40°40' W 074°05'0 0.0
2017-Dec-03 03:27N 40°40' W 074°05'0 0.0
2017-Dec-03 02:49N 40°40' W 074°05'0 0.0
2017-Dec-03 02:28N 40°40' W 074°05'0 0.0
2017-Dec-03 01:58N 40°40' W 074°05'0 0.0
2017-Dec-03 01:31N 40°40' W 074°05'0 0.0
2017-Dec-03 01:00N 40°40' W 074°05'0 0.0
2017-Dec-03 00:30N 40°40' W 074°05'0 0.0
2017-Dec-02 23:57N 40°40' W 074°05'0 0.0
2017-Dec-02 23:30N 40°40' W 074°05'0 0.0
2017-Dec-02 23:00N 40°40' W 074°05'0 0.0
2017-Dec-02 22:30N 40°40' W 074°05'0 0.0
2017-Dec-02 22:00N 40°40' W 074°05'0 0.0
2017-Dec-02 21:30N 40°40' W 074°05'0 0.0
2017-Dec-02 21:00N 40°40' W 074°05'0 0.0
2017-Dec-02 20:30N 40°40' W 074°05'0 0.0
2017-Dec-02 20:00N 40°40' W 074°05'0 0.0
2017-Dec-02 19:30N 40°40' W 074°05'0 0.0
2017-Dec-02 19:00N 40°40' W 074°05'0 0.0
2017-Dec-02 18:27N 40°40' W 074°05'0 0.0
2017-Dec-02 17:57N 40°40' W 074°05'0 0.0
2017-Dec-02 17:27N 40°40' W 074°05'0 0.0
2017-Dec-02 16:57N 40°40' W 074°05'0 0.0
2017-Dec-02 16:31N 40°40' W 074°05'0 0.0
2017-Dec-02 16:00N 40°40' W 074°05'  

Dump ship's entire track history